createdAt,value
2019-05-21T00:01:26.686Z,20.17
2019-05-21T00:04:03.164Z,20.08
2019-05-21T00:06:39.687Z,20.48
2019-05-21T00:09:16.324Z,19.75
2019-05-21T00:11:52.958Z,19.80
2019-05-21T00:14:29.632Z,20.68
2019-05-21T00:17:06.089Z,20.62
2019-05-21T00:19:42.210Z,24.23
2019-05-21T00:22:19.017Z,29.02
2019-05-21T00:24:56.646Z,28.20
2019-05-21T00:27:33.628Z,26.27
2019-05-21T00:30:43.090Z,23.22
2019-05-21T00:33:52.827Z,23.62
2019-05-21T00:37:05.026Z,32.17
2019-05-21T00:40:14.963Z,27.02
2019-05-21T00:42:51.408Z,24.55
2019-05-21T00:45:28.065Z,25.00
2019-05-21T00:48:05.952Z,19.42
2019-05-21T00:50:42.363Z,20.08
2019-05-21T00:53:19.908Z,19.17
2019-05-21T00:55:56.871Z,18.60
2019-05-21T00:58:33.323Z,19.32
2019-05-21T01:01:10.280Z,18.00
2019-05-21T01:03:46.771Z,17.05
2019-05-21T01:06:23.555Z,17.10
2019-05-21T01:09:00.491Z,16.73
2019-05-21T01:11:37.822Z,16.27
2019-05-21T01:14:14.270Z,15.78
2019-05-21T01:16:52.345Z,15.98
2019-05-21T01:19:29.282Z,16.35
2019-05-21T01:22:05.895Z,15.50
2019-05-21T01:24:43.590Z,15.10
2019-05-21T01:27:20.402Z,15.48
2019-05-21T01:29:56.837Z,15.53
2019-05-21T01:32:33.379Z,15.95
2019-05-21T01:35:17.237Z,14.98
2019-05-21T01:37:48.523Z,16.00
2019-05-21T01:40:25.167Z,14.13
2019-05-21T01:43:03.322Z,15.80
2019-05-21T01:45:58.398Z,17.23
2019-05-21T01:48:34.920Z,15.78
2019-05-21T01:51:11.720Z,15.50
2019-05-21T01:53:48.093Z,15.90
2019-05-21T01:56:25.044Z,16.37
2019-05-21T01:59:01.891Z,16.52
2019-05-21T02:01:38.473Z,15.40
2019-05-21T02:04:15.035Z,16.67
2019-05-21T02:06:51.561Z,15.95
2019-05-21T02:09:28.207Z,15.53
2019-05-21T02:12:04.595Z,15.78
2019-05-21T02:14:40.878Z,15.72
2019-05-21T02:17:20.292Z,16.02
2019-05-21T02:19:56.893Z,14.95
2019-05-21T02:22:34.302Z,15.10
2019-05-21T02:25:11.464Z,14.93
2019-05-21T02:27:47.809Z,14.20
2019-05-21T02:30:25.006Z,14.65
2019-05-21T02:33:01.488Z,15.35
2019-05-21T02:35:53.024Z,14.83
2019-05-21T02:38:15.802Z,15.50
2019-05-21T02:40:53.662Z,15.45
2019-05-21T02:43:30.091Z,15.70
2019-05-21T02:46:07.162Z,14.98
2019-05-21T02:48:43.780Z,15.23
2019-05-21T02:51:20.494Z,16.20
2019-05-21T02:53:57.092Z,15.25
2019-05-21T02:56:34.067Z,14.75
2019-05-21T02:59:10.827Z,15.28
2019-05-21T03:02:08.361Z,15.65
2019-05-21T03:04:45.104Z,14.75
2019-05-21T03:07:24.954Z,15.70
2019-05-21T03:09:59.480Z,16.40
2019-05-21T03:12:36.490Z,15.23
2019-05-21T03:15:13.108Z,14.20
2019-05-21T03:17:49.694Z,15.00
2019-05-21T03:20:26.521Z,14.98
2019-05-21T03:23:02.934Z,14.58
2019-05-21T03:25:39.530Z,14.63
2019-05-21T03:28:16.068Z,14.18
2019-05-21T03:30:52.683Z,14.90
2019-05-21T03:33:29.480Z,14.75
2019-05-21T03:36:06.180Z,15.40
2019-05-21T03:38:42.999Z,15.23
2019-05-21T03:41:19.343Z,14.35
2019-05-21T03:43:55.505Z,14.40
2019-05-21T03:46:32.381Z,14.00
2019-05-21T03:49:09.028Z,15.20
2019-05-21T03:51:45.825Z,14.78
2019-05-21T03:54:22.573Z,15.28
2019-05-21T03:56:58.940Z,15.85
2019-05-21T03:59:37.218Z,16.82
2019-05-21T04:02:13.938Z,15.78
2019-05-21T04:04:50.745Z,17.15
2019-05-21T04:07:27.391Z,15.60
2019-05-21T04:10:04.431Z,15.15
2019-05-21T04:12:41.101Z,15.50
2019-05-21T04:15:20.576Z,14.98
2019-05-21T04:18:05.965Z,14.60
2019-05-21T04:20:42.549Z,14.85
2019-05-21T04:23:19.158Z,15.68
2019-05-21T04:25:55.980Z,14.45
2019-05-21T04:28:32.423Z,14.23
2019-05-21T04:31:08.917Z,14.68
2019-05-21T04:33:45.600Z,14.35
2019-05-21T04:36:22.216Z,14.13
2019-05-21T04:38:59.027Z,13.85
2019-05-21T04:41:35.567Z,14.35
2019-05-21T04:44:12.062Z,14.25
2019-05-21T04:46:48.763Z,14.80
2019-05-21T04:49:25.307Z,13.75
2019-05-21T04:52:01.996Z,14.53
2019-05-21T04:54:38.639Z,14.15
2019-05-21T04:57:15.300Z,14.83
2019-05-21T04:59:52.488Z,13.88
2019-05-21T05:02:29.009Z,14.23
2019-05-21T05:05:05.631Z,14.18
2019-05-21T05:07:42.277Z,13.60
2019-05-21T05:10:19.942Z,14.03
2019-05-21T05:12:56.627Z,14.38
2019-05-21T05:15:33.282Z,13.93
2019-05-21T05:18:09.377Z,14.25
2019-05-21T05:20:46.223Z,15.23
2019-05-21T05:23:22.987Z,15.28
2019-05-21T05:25:59.092Z,14.45
2019-05-21T05:28:35.989Z,14.80
2019-05-21T05:31:15.271Z,14.05
2019-05-21T05:33:50.451Z,14.40
2019-05-21T05:36:26.880Z,14.60
2019-05-21T05:39:02.968Z,14.68
2019-05-21T05:41:39.354Z,14.23
2019-05-21T05:44:15.721Z,14.33
2019-05-21T05:46:51.914Z,14.10
2019-05-21T05:49:33.624Z,14.13
2019-05-21T05:52:10.062Z,14.50
2019-05-21T05:54:46.341Z,14.50
2019-05-21T05:57:22.927Z,14.75
2019-05-21T05:59:59.521Z,14.70
2019-05-21T06:02:36.215Z,14.90
2019-05-21T06:05:12.973Z,13.10
2019-05-21T06:07:59.258Z,13.38
2019-05-21T06:10:28.214Z,13.18
2019-05-21T06:13:04.831Z,13.25
2019-05-21T06:15:41.730Z,12.55
2019-05-21T06:18:18.162Z,12.75
2019-05-21T06:20:54.660Z,12.68
2019-05-21T06:23:31.570Z,12.60
2019-05-21T06:26:08.337Z,13.58
2019-05-21T06:28:44.882Z,13.45
2019-05-21T06:31:21.311Z,12.30
2019-05-21T06:33:57.845Z,13.35
2019-05-21T06:36:34.126Z,13.13
2019-05-21T06:39:10.968Z,12.85
2019-05-21T06:41:47.778Z,13.08
2019-05-21T06:44:24.480Z,12.88
2019-05-21T06:47:01.019Z,12.00
2019-05-21T06:49:38.096Z,10.85
2019-05-21T06:52:14.596Z,10.35
2019-05-21T06:54:51.436Z,10.50
2019-05-21T06:57:28.097Z,10.80
2019-05-21T07:00:05.022Z,10.98
2019-05-21T07:02:42.013Z,10.10
2019-05-21T07:05:18.487Z,10.32
2019-05-21T07:07:55.072Z,10.75
2019-05-21T07:10:31.692Z,10.13
2019-05-21T07:13:08.205Z,10.28
2019-05-21T07:15:44.768Z,10.90
2019-05-21T07:18:21.406Z,10.05
2019-05-21T07:20:58.006Z,10.40
2019-05-21T07:23:34.645Z,10.30
2019-05-21T07:26:11.402Z,12.45
2019-05-21T07:28:48.054Z,10.35
2019-05-21T07:31:24.588Z,10.45
2019-05-21T07:34:01.495Z,12.35
2019-05-21T07:36:38.353Z,10.10
2019-05-21T07:39:15.100Z,11.68
2019-05-21T07:41:51.642Z,11.10
2019-05-21T07:44:28.028Z,10.65
2019-05-21T07:47:04.646Z,10.53
2019-05-21T07:49:41.392Z,10.05
2019-05-21T07:52:18.210Z,10.05
2019-05-21T07:54:54.891Z,10.63
2019-05-21T07:57:32.038Z,10.35
2019-05-21T08:00:10.091Z,10.58
2019-05-21T08:02:46.769Z,10.23
2019-05-21T08:05:23.804Z,10.90
2019-05-21T08:08:00.566Z,10.28
2019-05-21T08:10:37.025Z,11.15
2019-05-21T08:13:13.694Z,11.40
2019-05-21T08:15:50.171Z,11.20
2019-05-21T08:18:26.761Z,11.00
2019-05-21T08:21:03.389Z,10.63
2019-05-21T08:23:39.708Z,11.40
2019-05-21T08:26:16.428Z,10.55
2019-05-21T08:28:53.549Z,11.15
2019-05-21T08:31:30.105Z,11.12
2019-05-21T08:34:06.992Z,14.73
2019-05-21T08:36:43.465Z,11.45
2019-05-21T08:39:28.174Z,11.80
2019-05-21T08:41:58.671Z,11.35
2019-05-21T08:44:35.915Z,11.18
2019-05-21T08:47:12.649Z,11.05
2019-05-21T08:49:49.440Z,11.85
2019-05-21T08:52:25.864Z,11.83
2019-05-21T08:55:02.532Z,11.88
2019-05-21T08:57:39.216Z,12.70
2019-05-21T09:00:17.987Z,12.95
2019-05-21T09:02:54.923Z,12.47
2019-05-21T09:05:32.167Z,12.47
2019-05-21T09:08:08.909Z,11.95
2019-05-21T09:10:46.386Z,12.23
2019-05-21T09:13:23.284Z,12.90
2019-05-21T09:16:00.177Z,13.40
2019-05-21T09:18:36.455Z,13.48
2019-05-21T09:21:13.082Z,13.83
2019-05-21T09:23:49.497Z,14.15
2019-05-21T09:26:26.270Z,13.75
2019-05-21T09:29:03.215Z,12.58
2019-05-21T09:31:39.667Z,13.85
2019-05-21T09:34:16.252Z,13.10
2019-05-21T09:36:52.963Z,12.58
2019-05-21T09:39:29.912Z,12.00
2019-05-21T09:42:06.531Z,13.08
2019-05-21T09:44:43.092Z,11.22
2019-05-21T09:47:19.938Z,12.03
2019-05-21T09:49:56.770Z,11.60
2019-05-21T09:52:33.316Z,16.42
2019-05-21T09:55:10.442Z,10.23
2019-05-21T09:58:11.044Z,23.83
2019-05-21T10:01:18.011Z,40.67
2019-05-21T10:03:59.982Z,59.18
2019-05-21T10:06:36.833Z,24.60
2019-05-21T10:09:19.380Z,11.63
2019-05-21T10:11:55.866Z,10.85
2019-05-21T10:14:34.232Z,9.85
2019-05-21T10:17:10.223Z,9.15
2019-05-21T10:19:46.745Z,9.65
2019-05-21T10:22:23.545Z,10.03
2019-05-21T10:25:00.261Z,9.13
2019-05-21T10:27:36.945Z,9.00
2019-05-21T10:30:14.438Z,9.85
2019-05-21T10:32:51.055Z,10.23
2019-05-21T10:35:27.281Z,10.15
2019-05-21T10:38:03.725Z,10.93
2019-05-21T10:40:40.417Z,11.48
2019-05-21T10:43:16.839Z,12.10
2019-05-21T10:45:53.783Z,12.73
2019-05-21T10:48:47.956Z,13.38
2019-05-21T10:51:24.363Z,12.70
2019-05-21T10:54:00.935Z,13.75
2019-05-21T10:56:47.571Z,12.85
2019-05-21T10:59:15.235Z,11.48
2019-05-21T11:02:01.106Z,11.03
2019-05-21T11:04:43.214Z,10.43
2019-05-21T11:07:22.016Z,11.95
2019-05-21T11:09:58.605Z,10.43
2019-05-21T11:12:35.372Z,11.35
2019-05-21T11:15:12.658Z,10.32
2019-05-21T11:18:07.350Z,10.43
2019-05-21T11:20:26.813Z,10.70
2019-05-21T11:23:03.219Z,12.33
2019-05-21T11:25:39.632Z,12.33
2019-05-21T11:28:15.595Z,12.10
2019-05-21T11:30:52.189Z,11.00
2019-05-21T11:33:28.751Z,10.23
2019-05-21T11:36:04.609Z,10.48
2019-05-21T11:38:41.227Z,8.55
2019-05-21T11:41:17.673Z,7.78
2019-05-21T11:43:54.489Z,7.45
2019-05-21T11:46:31.026Z,6.45
2019-05-21T11:49:07.999Z,6.20
2019-05-21T11:51:44.697Z,5.80
2019-05-21T11:54:21.188Z,6.15
2019-05-21T11:56:57.381Z,5.70
2019-05-21T11:59:33.637Z,6.03
2019-05-21T12:02:10.937Z,5.70
2019-05-21T12:04:47.278Z,6.05
2019-05-21T12:07:24.285Z,6.22
2019-05-21T12:10:00.680Z,6.30
2019-05-21T12:12:37.589Z,6.25
2019-05-21T12:15:15.037Z,6.58
2019-05-21T12:17:51.927Z,6.55
2019-05-21T12:20:36.645Z,6.92
2019-05-21T12:23:06.268Z,6.25
2019-05-21T12:25:42.926Z,6.62
2019-05-21T12:28:19.508Z,7.05
2019-05-21T12:30:56.111Z,7.20
2019-05-21T12:33:35.208Z,6.70
2019-05-21T12:36:12.268Z,6.75
2019-05-21T12:38:48.691Z,6.55
2019-05-21T12:41:25.157Z,6.58
2019-05-21T12:44:01.775Z,6.83
2019-05-21T12:46:55.998Z,7.00
2019-05-21T12:49:32.723Z,7.30
2019-05-21T12:52:09.339Z,7.75
2019-05-21T12:54:46.465Z,7.87
2019-05-21T12:57:22.680Z,8.73
2019-05-21T12:59:58.728Z,7.55
2019-05-21T13:02:35.297Z,7.75
2019-05-21T13:05:11.892Z,8.25
2019-05-21T13:07:48.722Z,7.87
2019-05-21T13:10:27.058Z,7.85
2019-05-21T13:13:04.953Z,8.38
2019-05-21T13:15:41.875Z,7.72
2019-05-21T13:18:18.406Z,8.20
2019-05-21T13:20:54.675Z,8.53
2019-05-21T13:23:30.725Z,8.15
2019-05-21T13:26:08.715Z,7.85
2019-05-21T13:28:45.836Z,8.00
2019-05-21T13:31:22.758Z,8.38
2019-05-21T13:33:59.371Z,7.62
2019-05-21T13:36:35.926Z,7.90
2019-05-21T13:39:12.938Z,8.30
2019-05-21T13:41:49.548Z,8.23
2019-05-21T13:44:26.021Z,7.60
2019-05-21T13:47:03.191Z,8.43
2019-05-21T13:49:39.886Z,8.20
2019-05-21T13:52:16.349Z,8.33
2019-05-21T13:54:53.180Z,8.35
2019-05-21T13:57:29.985Z,9.00
2019-05-21T14:00:06.961Z,8.28
2019-05-21T14:02:44.148Z,8.30
2019-05-21T14:05:20.446Z,8.63
2019-05-21T14:07:58.089Z,9.25
2019-05-21T14:10:34.766Z,9.25
2019-05-21T14:13:11.073Z,8.78
2019-05-21T14:15:48.271Z,9.78
2019-05-21T14:18:24.862Z,8.85
2019-05-21T14:21:02.609Z,9.13
2019-05-21T14:23:40.156Z,9.60
2019-05-21T14:26:17.215Z,10.40
2019-05-21T14:28:53.659Z,9.90
2019-05-21T14:31:30.191Z,9.75
2019-05-21T14:34:06.696Z,9.40
2019-05-21T14:36:42.833Z,8.85
2019-05-21T14:39:20.310Z,8.65
2019-05-21T14:41:56.808Z,9.20
2019-05-21T14:44:33.787Z,9.90
2019-05-21T14:47:10.281Z,10.13
2019-05-21T14:49:47.889Z,9.95
2019-05-21T14:52:24.700Z,9.25
2019-05-21T14:55:00.837Z,9.43
2019-05-21T14:57:37.489Z,9.58
2019-05-21T15:00:38.854Z,9.50
2019-05-21T15:03:24.902Z,9.25
2019-05-21T15:05:53.023Z,8.23
2019-05-21T15:08:29.532Z,9.53
2019-05-21T15:11:06.457Z,9.65
2019-05-21T15:13:43.380Z,9.15
2019-05-21T15:16:19.883Z,10.85
2019-05-21T15:18:55.949Z,10.38
2019-05-21T15:21:37.261Z,9.78
2019-05-21T15:24:13.688Z,10.32
2019-05-21T15:26:50.751Z,10.55
2019-05-21T15:29:27.925Z,11.25
2019-05-21T15:32:04.452Z,11.08
2019-05-21T15:34:41.096Z,10.78
2019-05-21T15:37:17.384Z,9.58
2019-05-21T15:39:54.622Z,10.78
2019-05-21T15:42:31.674Z,11.10
2019-05-21T15:45:08.562Z,9.95
2019-05-21T15:47:45.299Z,10.03
2019-05-21T15:50:22.028Z,9.70
2019-05-21T15:52:58.887Z,10.15
2019-05-21T15:55:35.514Z,10.38
2019-05-21T15:58:12.249Z,9.65
2019-05-21T16:00:49.409Z,10.75
2019-05-21T16:03:26.047Z,9.95
2019-05-21T16:06:02.677Z,9.45
2019-05-21T16:08:39.188Z,9.58
2019-05-21T16:11:28.149Z,11.05
2019-05-21T16:13:54.262Z,9.83
2019-05-21T16:16:32.559Z,10.18
2019-05-21T16:19:09.946Z,10.68
2019-05-21T16:21:46.835Z,10.38
2019-05-21T16:24:23.555Z,11.12
2019-05-21T16:27:00.341Z,11.12
2019-05-21T16:29:36.924Z,11.40
2019-05-21T16:32:13.672Z,10.63
2019-05-21T16:34:50.277Z,9.78
2019-05-21T16:37:27.141Z,9.95
2019-05-21T16:40:03.844Z,11.38
2019-05-21T16:42:40.666Z,11.08
2019-05-21T16:45:19.161Z,10.70
2019-05-21T16:47:56.588Z,10.48
2019-05-21T16:50:33.140Z,10.40
2019-05-21T16:53:09.560Z,10.05
2019-05-21T16:55:46.016Z,10.68
2019-05-21T16:58:22.679Z,10.43
2019-05-21T17:00:59.300Z,9.58
2019-05-21T17:03:36.628Z,10.10
2019-05-21T17:06:12.927Z,9.70
2019-05-21T17:08:49.775Z,11.03
2019-05-21T17:11:26.400Z,10.95
2019-05-21T17:14:02.987Z,10.43
2019-05-21T17:16:39.821Z,10.30
2019-05-21T17:19:16.200Z,11.10
2019-05-21T17:21:52.500Z,10.75
2019-05-21T17:24:29.030Z,10.98
2019-05-21T17:27:05.669Z,11.60
2019-05-21T17:29:42.032Z,11.40
2019-05-21T17:32:18.758Z,11.78
2019-05-21T17:34:55.573Z,10.35
2019-05-21T17:37:33.268Z,10.85
2019-05-21T17:40:09.994Z,10.98
2019-05-21T17:42:46.762Z,11.55
2019-05-21T17:45:23.682Z,10.00
2019-05-21T17:48:00.448Z,11.03
2019-05-21T17:50:37.237Z,10.32
2019-05-21T17:53:14.001Z,10.65
2019-05-21T17:55:50.612Z,10.23
2019-05-21T17:58:27.271Z,9.53
2019-05-21T18:01:05.793Z,10.50
2019-05-21T18:03:42.658Z,10.05
2019-05-21T18:06:20.077Z,10.48
2019-05-21T18:08:57.051Z,10.03
2019-05-21T18:11:34.165Z,9.75
2019-05-21T18:14:11.146Z,10.30
2019-05-21T18:16:48.139Z,10.08
2019-05-21T18:19:24.624Z,9.93
2019-05-21T18:22:01.765Z,10.63
2019-05-21T18:24:38.741Z,10.55
2019-05-21T18:27:15.246Z,9.90
2019-05-21T18:29:52.240Z,10.75
2019-05-21T18:32:29.008Z,9.90
2019-05-21T18:35:06.982Z,10.30
2019-05-21T18:37:44.308Z,10.40
2019-05-21T18:40:22.145Z,10.23
2019-05-21T18:42:58.557Z,10.08
2019-05-21T18:45:35.450Z,9.93
2019-05-21T18:48:11.876Z,10.72
2019-05-21T18:50:48.071Z,10.32
2019-05-21T18:53:24.946Z,10.90
2019-05-21T18:56:01.687Z,11.70
2019-05-21T18:58:38.490Z,10.98
2019-05-21T19:01:15.269Z,11.45
2019-05-21T19:03:51.956Z,10.78
2019-05-21T19:06:29.412Z,10.40
2019-05-21T19:09:06.269Z,10.38
2019-05-21T19:11:42.967Z,10.05
2019-05-21T19:14:19.775Z,9.65
2019-05-21T19:16:55.991Z,9.98
2019-05-21T19:19:32.550Z,9.48
2019-05-21T19:22:09.301Z,8.78
2019-05-21T19:24:46.002Z,8.88
2019-05-21T19:27:22.475Z,9.73
2019-05-21T19:29:59.063Z,10.00
2019-05-21T19:32:35.876Z,9.03
2019-05-21T19:35:12.842Z,9.83
2019-05-21T19:37:49.643Z,9.93
2019-05-21T19:40:26.657Z,12.25
2019-05-21T19:43:03.061Z,11.15
2019-05-21T19:45:39.176Z,12.53
2019-05-21T19:48:16.121Z,12.68
2019-05-21T19:50:52.813Z,11.90
2019-05-21T19:53:29.499Z,11.85
2019-05-21T19:56:06.451Z,11.22
2019-05-21T19:58:43.111Z,12.23
2019-05-21T20:01:19.769Z,11.25
2019-05-21T20:03:56.957Z,11.20
2019-05-21T20:06:35.425Z,11.83
2019-05-21T20:09:16.932Z,11.25
2019-05-21T20:11:53.672Z,12.20
2019-05-21T20:14:30.971Z,11.83
2019-05-21T20:17:08.696Z,12.98
2019-05-21T20:19:48.105Z,13.13
2019-05-21T20:22:27.040Z,11.60
2019-05-21T20:25:06.127Z,11.57
2019-05-21T20:27:45.546Z,11.78
2019-05-21T20:30:24.489Z,10.85
2019-05-21T20:33:02.949Z,11.43
2019-05-21T20:35:41.932Z,10.65
2019-05-21T20:38:21.192Z,11.12
2019-05-21T20:40:59.847Z,12.85
2019-05-21T20:43:38.762Z,12.60
2019-05-21T20:46:17.949Z,14.78
2019-05-21T20:48:56.760Z,14.98
2019-05-21T20:51:35.211Z,15.30
2019-05-21T20:54:16.268Z,14.98
2019-05-21T20:56:55.145Z,16.17
2019-05-21T20:59:34.208Z,15.05
2019-05-21T21:02:13.132Z,14.05
2019-05-21T21:04:51.955Z,13.05
2019-05-21T21:07:30.854Z,12.47
2019-05-21T21:10:10.514Z,11.75
2019-05-21T21:12:50.735Z,11.70
2019-05-21T21:15:30.478Z,11.55
2019-05-21T21:18:09.311Z,11.68
2019-05-21T21:20:47.789Z,12.35
2019-05-21T21:23:27.936Z,12.13
2019-05-21T21:26:07.495Z,10.80
2019-05-21T21:28:46.056Z,11.88
2019-05-21T21:31:24.726Z,11.33
2019-05-21T21:34:03.133Z,10.75
2019-05-21T21:36:41.519Z,8.03
2019-05-21T21:39:22.254Z,9.23
2019-05-21T21:42:00.919Z,8.60
2019-05-21T21:44:40.540Z,6.60
2019-05-21T21:47:19.631Z,5.15
2019-05-21T21:49:58.452Z,5.28
2019-05-21T21:52:37.408Z,4.92
2019-05-21T21:55:16.274Z,6.17
2019-05-21T21:57:54.831Z,6.17
2019-05-21T22:01:23.106Z,5.80
2019-05-21T22:04:04.544Z,5.65
2019-05-21T22:06:46.166Z,6.33
2019-05-21T22:09:33.384Z,6.00
2019-05-21T22:12:14.846Z,5.58
2019-05-21T22:14:55.715Z,5.67
2019-05-21T22:17:34.574Z,5.03
2019-05-21T22:20:15.313Z,5.85
2019-05-21T22:22:53.748Z,6.12
2019-05-21T22:25:32.044Z,5.40
2019-05-21T22:28:10.324Z,6.30
2019-05-21T22:30:49.886Z,6.25
2019-05-21T22:33:28.258Z,6.03
2019-05-21T22:36:07.443Z,6.25
2019-05-21T22:38:45.948Z,5.47
2019-05-21T22:41:22.937Z,5.20
2019-05-21T22:43:59.624Z,6.28
2019-05-21T22:46:35.999Z,5.95
2019-05-21T22:49:13.269Z,6.83
2019-05-21T22:51:49.727Z,6.90
2019-05-21T22:54:27.743Z,6.67
2019-05-21T22:57:06.172Z,5.78
2019-05-21T22:59:44.591Z,5.72
2019-05-21T23:02:27.531Z,5.83
2019-05-21T23:05:06.646Z,5.60
2019-05-21T23:07:46.164Z,5.33
2019-05-21T23:10:25.236Z,5.95
2019-05-21T23:13:03.893Z,5.67
2019-05-21T23:15:43.406Z,6.08
2019-05-21T23:18:23.286Z,6.62
2019-05-21T23:21:03.513Z,6.80
2019-05-21T23:23:43.421Z,7.37
2019-05-21T23:26:22.292Z,7.42
2019-05-21T23:28:59.597Z,6.75
2019-05-21T23:31:36.854Z,6.35
2019-05-21T23:34:14.629Z,5.40
2019-05-21T23:36:52.866Z,6.75
2019-05-21T23:39:34.259Z,6.12
2019-05-21T23:42:12.767Z,5.83
2019-05-21T23:44:51.257Z,5.60
2019-05-21T23:47:30.210Z,5.87
2019-05-21T23:50:09.245Z,6.22
2019-05-21T23:52:48.192Z,5.92
2019-05-21T23:55:26.363Z,5.92
2019-05-21T23:58:05.505Z,5.60
